createdAt,value
2022-11-16T00:18:04.638Z,95.7
2022-11-16T00:38:04.596Z,97.1
2022-11-16T00:58:04.569Z,97.7
2022-11-16T01:18:04.531Z,97.9
2022-11-16T01:38:04.489Z,98.2
2022-11-16T01:58:04.466Z,98.7
2022-11-16T02:18:04.460Z,99.1
2022-11-16T02:38:04.390Z,99.2
2022-11-16T02:58:04.347Z,99.9
2022-11-16T03:18:04.307Z,100
2022-11-16T03:58:04.246Z,100
2022-11-16T06:38:04.007Z,97.6
2022-11-16T06:58:03.916Z,97.6
2022-11-16T07:18:03.972Z,97.8
2022-11-16T07:38:03.848Z,97.8
2022-11-16T07:58:03.829Z,96.7
2022-11-16T08:18:03.784Z,95.6
2022-11-16T08:38:03.738Z,92.2
2022-11-16T08:58:03.695Z,88.3
2022-11-16T09:18:03.667Z,84.5
2022-11-16T09:38:03.652Z,78.3
2022-11-16T09:58:03.589Z,74.2
2022-11-16T10:18:03.569Z,73.5
2022-11-16T10:38:03.515Z,68.9
2022-11-16T10:58:03.493Z,69.8
2022-11-16T11:18:03.456Z,65.7
2022-11-16T11:38:07.369Z,70.3
2022-11-16T11:58:03.368Z,67.8
2022-11-16T12:38:03.279Z,63.3
2022-11-16T12:58:03.255Z,65.3
2022-11-16T13:18:03.233Z,64.4
2022-11-16T13:58:03.200Z,58.3
2022-11-16T14:18:03.093Z,65.9
2022-11-16T14:38:03.055Z,65.4
2022-11-16T14:58:03.027Z,66.3
2022-11-16T15:18:02.979Z,68.1
2022-11-16T15:38:02.947Z,69.2
2022-11-16T16:18:02.870Z,72.5
2022-11-16T16:38:03.013Z,74.4
2022-11-16T16:58:02.801Z,78.6
2022-11-16T17:18:02.783Z,78.4
2022-11-16T17:38:02.718Z,77.3
2022-11-16T17:58:02.703Z,77
2022-11-16T18:18:02.647Z,77
2022-11-16T18:38:02.613Z,77.9
2022-11-16T18:58:04.492Z,80
2022-11-16T19:18:19.662Z,82
2022-11-16T19:38:02.510Z,82.5
2022-11-16T20:18:02.440Z,84.1
2022-11-16T20:38:02.407Z,85.6
2022-11-16T20:58:02.361Z,86.7
2022-11-16T21:18:02.331Z,86.3
2022-11-16T21:38:02.307Z,86.5
2022-11-16T21:58:02.261Z,86.9
2022-11-16T22:18:02.235Z,86.2
2022-11-16T22:38:02.235Z,86.7
2022-11-16T22:58:02.160Z,86.8
2022-11-16T23:18:02.157Z,86.8
2022-11-16T23:38:02.092Z,85.8
2022-11-16T23:58:02.069Z,85.4
